sensor_id;sensor_type;location;lat;lon;timestamp;P1;durP1;ratioP1;P2;durP2;ratioP2
68523;SDS011;55524;51.380;13.372;2023-01-19T00:00:34;20.90;;;9.65;;
68523;SDS011;55524;51.380;13.372;2023-01-19T00:03:02;23.27;;;10.00;;
68523;SDS011;55524;51.380;13.372;2023-01-19T00:05:29;22.35;;;10.07;;
68523;SDS011;55524;51.380;13.372;2023-01-19T00:07:55;20.88;;;10.23;;
68523;SDS011;55524;51.380;13.372;2023-01-19T00:10:38;22.67;;;10.02;;
68523;SDS011;55524;51.380;13.372;2023-01-19T00:13:08;21.73;;;9.30;;
68523;SDS011;55524;51.380;13.372;2023-01-19T00:15:35;22.10;;;10.07;;
68523;SDS011;55524;51.380;13.372;2023-01-19T00:18:01;20.58;;;9.52;;
68523;SDS011;55524;51.380;13.372;2023-01-19T00:20:28;18.48;;;8.95;;
68523;SDS011;55524;51.380;13.372;2023-01-19T00:22:56;20.05;;;8.82;;
68523;SDS011;55524;51.380;13.372;2023-01-19T00:25:23;19.75;;;8.57;;
68523;SDS011;55524;51.380;13.372;2023-01-19T00:27:49;19.27;;;8.13;;
68523;SDS011;55524;51.380;13.372;2023-01-19T00:30:15;22.50;;;8.48;;
68523;SDS011;55524;51.380;13.372;2023-01-19T00:32:42;17.33;;;9.00;;
68523;SDS011;55524;51.380;13.372;2023-01-19T00:35:08;16.52;;;7.78;;
68523;SDS011;55524;51.380;13.372;2023-01-19T00:37:35;16.70;;;8.52;;
68523;SDS011;55524;51.380;13.372;2023-01-19T00:40:01;16.35;;;7.95;;
68523;SDS011;55524;51.380;13.372;2023-01-19T00:42:27;15.88;;;8.85;;
68523;SDS011;55524;51.380;13.372;2023-01-19T00:45:12;25.67;;;10.18;;
68523;SDS011;55524;51.380;13.372;2023-01-19T00:47:39;25.67;;;10.25;;
68523;SDS011;55524;51.380;13.372;2023-01-19T00:50:07;29.83;;;10.35;;
68523;SDS011;55524;51.380;13.372;2023-01-19T00:52:38;21.63;;;9.45;;
68523;SDS011;55524;51.380;13.372;2023-01-19T00:55:09;20.30;;;8.68;;
68523;SDS011;55524;51.380;13.372;2023-01-19T00:57:37;23.90;;;9.10;;
68523;SDS011;55524;51.380;13.372;2023-01-19T01:00:05;22.98;;;9.32;;
68523;SDS011;55524;51.380;13.372;2023-01-19T01:02:35;20.15;;;8.57;;
68523;SDS011;55524;51.380;13.372;2023-01-19T01:05:02;21.40;;;9.32;;
68523;SDS011;55524;51.380;13.372;2023-01-19T01:07:30;23.27;;;9.43;;
68523;SDS011;55524;51.380;13.372;2023-01-19T01:10:06;25.15;;;10.13;;
68523;SDS011;55524;51.380;13.372;2023-01-19T01:12:33;21.30;;;9.43;;
68523;SDS011;55524;51.380;13.372;2023-01-19T01:15:00;22.98;;;9.52;;
68523;SDS011;55524;51.380;13.372;2023-01-19T01:17:26;26.23;;;9.48;;
68523;SDS011;55524;51.380;13.372;2023-01-19T01:19:53;29.35;;;9.38;;
68523;SDS011;55524;51.380;13.372;2023-01-19T01:22:19;20.73;;;9.35;;
68523;SDS011;55524;51.380;13.372;2023-01-19T01:24:45;27.17;;;9.73;;
68523;SDS011;55524;51.380;13.372;2023-01-19T01:27:11;22.20;;;9.57;;
68523;SDS011;55524;51.380;13.372;2023-01-19T01:29:37;22.65;;;9.05;;
68523;SDS011;55524;51.380;13.372;2023-01-19T01:32:05;21.05;;;8.90;;
68523;SDS011;55524;51.380;13.372;2023-01-19T01:34:32;19.90;;;7.60;;
68523;SDS011;55524;51.380;13.372;2023-01-19T01:36:58;22.05;;;8.68;;
68523;SDS011;55524;51.380;13.372;2023-01-19T01:39:25;19.63;;;8.65;;
68523;SDS011;55524;51.380;13.372;2023-01-19T01:41:51;18.95;;;8.18;;
68523;SDS011;55524;51.380;13.372;2023-01-19T01:52:58;22.35;;;9.95;;
68523;SDS011;55524;51.380;13.372;2023-01-19T01:55:37;22.83;;;10.05;;
68523;SDS011;55524;51.380;13.372;2023-01-19T01:58:10;20.20;;;9.15;;
68523;SDS011;55524;51.380;13.372;2023-01-19T02:00:38;19.25;;;8.70;;
68523;SDS011;55524;51.380;13.372;2023-01-19T02:03:23;21.38;;;8.70;;
68523;SDS011;55524;51.380;13.372;2023-01-19T02:05:51;19.88;;;8.10;;
68523;SDS011;55524;51.380;13.372;2023-01-19T02:08:29;17.60;;;7.57;;
68523;SDS011;55524;51.380;13.372;2023-01-19T02:11:26;16.38;;;7.70;;
68523;SDS011;55524;51.380;13.372;2023-01-19T02:14:12;21.88;;;7.35;;
68523;SDS011;55524;51.380;13.372;2023-01-19T02:16:38;19.85;;;7.43;;
68523;SDS011;55524;51.380;13.372;2023-01-19T02:19:06;15.85;;;6.45;;
68523;SDS011;55524;51.380;13.372;2023-01-19T02:21:41;15.73;;;7.32;;
68523;SDS011;55524;51.380;13.372;2023-01-19T02:24:11;15.07;;;7.32;;
68523;SDS011;55524;51.380;13.372;2023-01-19T02:26:39;17.75;;;7.72;;
68523;SDS011;55524;51.380;13.372;2023-01-19T02:29:12;16.48;;;7.57;;
68523;SDS011;55524;51.380;13.372;2023-01-19T02:31:45;12.15;;;6.15;;
68523;SDS011;55524;51.380;13.372;2023-01-19T02:34:13;8.93;;;4.30;;
68523;SDS011;55524;51.380;13.372;2023-01-19T02:39:18;6.80;;;3.58;;
68523;SDS011;55524;51.380;13.372;2023-01-19T02:41:50;8.68;;;4.25;;
68523;SDS011;55524;51.380;13.372;2023-01-19T02:44:21;7.70;;;4.72;;
68523;SDS011;55524;51.380;13.372;2023-01-19T02:46:48;9.82;;;5.15;;
68523;SDS011;55524;51.380;13.372;2023-01-19T02:49:17;12.68;;;5.50;;
68523;SDS011;55524;51.380;13.372;2023-01-19T02:51:43;11.73;;;5.57;;
68523;SDS011;55524;51.380;13.372;2023-01-19T03:10:42;11.07;;;6.40;;
68523;SDS011;55524;51.380;13.372;2023-01-19T03:13:29;17.48;;;6.68;;
68523;SDS011;55524;51.380;13.372;2023-01-19T03:19:27;14.35;;;6.28;;
68523;SDS011;55524;51.380;13.372;2023-01-19T03:21:49;11.75;;;6.30;;
68523;SDS011;55524;51.380;13.372;2023-01-19T03:24:21;12.98;;;6.18;;
68523;SDS011;55524;51.380;13.372;2023-01-19T03:27:00;14.02;;;6.15;;
68523;SDS011;55524;51.380;13.372;2023-01-19T03:29:33;15.40;;;6.47;;
68523;SDS011;55524;51.380;13.372;2023-01-19T03:32:05;13.70;;;6.28;;
68523;SDS011;55524;51.380;13.372;2023-01-19T03:34:34;11.07;;;5.93;;
68523;SDS011;55524;51.380;13.372;2023-01-19T03:37:03;13.43;;;6.53;;
68523;SDS011;55524;51.380;13.372;2023-01-19T03:39:31;15.57;;;6.20;;
68523;SDS011;55524;51.380;13.372;2023-01-19T03:42:01;12.13;;;5.85;;
68523;SDS011;55524;51.380;13.372;2023-01-19T03:44:35;12.82;;;6.25;;
68523;SDS011;55524;51.380;13.372;2023-01-19T03:47:04;15.15;;;5.55;;
68523;SDS011;55524;51.380;13.372;2023-01-19T03:49:33;12.60;;;5.85;;
68523;SDS011;55524;51.380;13.372;2023-01-19T03:52:00;14.07;;;5.72;;
68523;SDS011;55524;51.380;13.372;2023-01-19T03:54:26;14.50;;;6.00;;
68523;SDS011;55524;51.380;13.372;2023-01-19T03:56:53;10.27;;;5.55;;
68523;SDS011;55524;51.380;13.372;2023-01-19T03:59:19;13.45;;;5.43;;
68523;SDS011;55524;51.380;13.372;2023-01-19T04:01:46;11.00;;;5.80;;
68523;SDS011;55524;51.380;13.372;2023-01-19T04:04:13;11.05;;;5.07;;
68523;SDS011;55524;51.380;13.372;2023-01-19T04:06:39;13.27;;;5.50;;
68523;SDS011;55524;51.380;13.372;2023-01-19T04:09:07;11.00;;;4.57;;
68523;SDS011;55524;51.380;13.372;2023-01-19T04:11:33;16.55;;;5.40;;
68523;SDS011;55524;51.380;13.372;2023-01-19T04:13:59;13.68;;;5.13;;
68523;SDS011;55524;51.380;13.372;2023-01-19T04:16:25;9.77;;;5.07;;
68523;SDS011;55524;51.380;13.372;2023-01-19T04:18:53;13.43;;;5.28;;
68523;SDS011;55524;51.380;13.372;2023-01-19T04:21:19;11.15;;;5.28;;
68523;SDS011;55524;51.380;13.372;2023-01-19T04:23:45;9.80;;;5.63;;
68523;SDS011;55524;51.380;13.372;2023-01-19T04:26:14;12.30;;;5.50;;
68523;SDS011;55524;51.380;13.372;2023-01-19T04:28:40;9.88;;;5.10;;
68523;SDS011;55524;51.380;13.372;2023-01-19T04:31:06;11.63;;;4.90;;
68523;SDS011;55524;51.380;13.372;2023-01-19T04:33:33;12.63;;;4.95;;
68523;SDS011;55524;51.380;13.372;2023-01-19T04:35:59;10.90;;;4.43;;
68523;SDS011;55524;51.380;13.372;2023-01-19T04:38:26;10.02;;;5.20;;
68523;SDS011;55524;51.380;13.372;2023-01-19T04:40:52;12.20;;;5.30;;
68523;SDS011;55524;51.380;13.372;2023-01-19T04:43:19;8.77;;;4.90;;
68523;SDS011;55524;51.380;13.372;2023-01-19T04:45:47;11.60;;;4.88;;
68523;SDS011;55524;51.380;13.372;2023-01-19T04:48:13;10.27;;;4.60;;
68523;SDS011;55524;51.380;13.372;2023-01-19T04:50:42;10.18;;;4.30;;
68523;SDS011;55524;51.380;13.372;2023-01-19T04:53:09;10.40;;;4.60;;
68523;SDS011;55524;51.380;13.372;2023-01-19T04:55:37;9.18;;;4.28;;
68523;SDS011;55524;51.380;13.372;2023-01-19T04:58:04;9.77;;;5.05;;
68523;SDS011;55524;51.380;13.372;2023-01-19T05:00:30;12.00;;;4.40;;
68523;SDS011;55524;51.380;13.372;2023-01-19T05:03:00;8.38;;;4.60;;
68523;SDS011;55524;51.380;13.372;2023-01-19T05:05:26;9.52;;;4.75;;
68523;SDS011;55524;51.380;13.372;2023-01-19T05:07:53;12.85;;;4.25;;
68523;SDS011;55524;51.380;13.372;2023-01-19T05:10:19;7.05;;;4.10;;
68523;SDS011;55524;51.380;13.372;2023-01-19T05:12:45;10.90;;;4.85;;
68523;SDS011;55524;51.380;13.372;2023-01-19T05:15:12;8.40;;;3.63;;
68523;SDS011;55524;51.380;13.372;2023-01-19T05:17:38;8.70;;;4.10;;
68523;SDS011;55524;51.380;13.372;2023-01-19T05:20:04;11.35;;;4.32;;
68523;SDS011;55524;51.380;13.372;2023-01-19T05:22:31;10.70;;;4.78;;
68523;SDS011;55524;51.380;13.372;2023-01-19T05:24:58;10.20;;;4.18;;
68523;SDS011;55524;51.380;13.372;2023-01-19T05:27:25;15.40;;;4.95;;
68523;SDS011;55524;51.380;13.372;2023-01-19T05:29:51;11.25;;;4.82;;
68523;SDS011;55524;51.380;13.372;2023-01-19T05:32:18;10.85;;;4.93;;
68523;SDS011;55524;51.380;13.372;2023-01-19T05:34:44;11.70;;;5.15;;
68523;SDS011;55524;51.380;13.372;2023-01-19T05:37:10;11.23;;;4.65;;
68523;SDS011;55524;51.380;13.372;2023-01-19T05:39:36;12.88;;;4.95;;
68523;SDS011;55524;51.380;13.372;2023-01-19T05:42:03;8.88;;;4.38;;
68523;SDS011;55524;51.380;13.372;2023-01-19T05:44:29;11.77;;;4.95;;
68523;SDS011;55524;51.380;13.372;2023-01-19T05:46:55;8.10;;;3.85;;
68523;SDS011;55524;51.380;13.372;2023-01-19T05:49:22;7.68;;;4.40;;
68523;SDS011;55524;51.380;13.372;2023-01-19T05:51:48;9.98;;;4.32;;
68523;SDS011;55524;51.380;13.372;2023-01-19T05:54:14;11.60;;;4.55;;
68523;SDS011;55524;51.380;13.372;2023-01-19T05:56:41;9.55;;;4.38;;
68523;SDS011;55524;51.380;13.372;2023-01-19T05:59:08;8.75;;;4.18;;
68523;SDS011;55524;51.380;13.372;2023-01-19T06:01:34;7.25;;;4.32;;
68523;SDS011;55524;51.380;13.372;2023-01-19T06:04:02;12.70;;;4.95;;
68523;SDS011;55524;51.380;13.372;2023-01-19T06:06:29;12.30;;;4.57;;
68523;SDS011;55524;51.380;13.372;2023-01-19T06:08:55;10.32;;;4.60;;
68523;SDS011;55524;51.380;13.372;2023-01-19T06:11:21;11.05;;;4.35;;
68523;SDS011;55524;51.380;13.372;2023-01-19T06:13:48;8.70;;;4.38;;
68523;SDS011;55524;51.380;13.372;2023-01-19T06:16:14;9.63;;;4.60;;
68523;SDS011;55524;51.380;13.372;2023-01-19T06:18:41;8.73;;;4.82;;
68523;SDS011;55524;51.380;13.372;2023-01-19T06:21:07;9.38;;;4.88;;
68523;SDS011;55524;51.380;13.372;2023-01-19T06:23:36;8.68;;;4.30;;
68523;SDS011;55524;51.380;13.372;2023-01-19T06:26:02;11.35;;;4.55;;
68523;SDS011;55524;51.380;13.372;2023-01-19T06:28:29;13.40;;;5.13;;
68523;SDS011;55524;51.380;13.372;2023-01-19T06:30:55;8.85;;;4.53;;
68523;SDS011;55524;51.380;13.372;2023-01-19T06:33:23;8.48;;;4.38;;
68523;SDS011;55524;51.380;13.372;2023-01-19T06:35:51;8.68;;;4.05;;
68523;SDS011;55524;51.380;13.372;2023-01-19T06:38:17;8.90;;;4.55;;
68523;SDS011;55524;51.380;13.372;2023-01-19T06:40:44;10.90;;;4.90;;
68523;SDS011;55524;51.380;13.372;2023-01-19T06:43:16;7.75;;;4.30;;
68523;SDS011;55524;51.380;13.372;2023-01-19T06:45:44;9.05;;;4.38;;
68523;SDS011;55524;51.380;13.372;2023-01-19T06:48:10;7.53;;;4.45;;
68523;SDS011;55524;51.380;13.372;2023-01-19T06:50:37;7.07;;;4.20;;
68523;SDS011;55524;51.380;13.372;2023-01-19T06:53:04;7.93;;;4.45;;
68523;SDS011;55524;51.380;13.372;2023-01-19T06:55:30;7.07;;;4.30;;
68523;SDS011;55524;51.380;13.372;2023-01-19T06:57:59;10.55;;;5.15;;
68523;SDS011;55524;51.380;13.372;2023-01-19T07:00:26;8.43;;;4.18;;
68523;SDS011;55524;51.380;13.372;2023-01-19T07:02:53;8.13;;;4.63;;
68523;SDS011;55524;51.380;13.372;2023-01-19T07:05:19;9.98;;;5.03;;
68523;SDS011;55524;51.380;13.372;2023-01-19T07:07:55;11.63;;;4.95;;
68523;SDS011;55524;51.380;13.372;2023-01-19T07:10:22;10.30;;;4.70;;
68523;SDS011;55524;51.380;13.372;2023-01-19T07:12:49;9.48;;;4.50;;
68523;SDS011;55524;51.380;13.372;2023-01-19T07:15:16;11.45;;;5.15;;
68523;SDS011;55524;51.380;13.372;2023-01-19T07:17:44;9.02;;;4.68;;
68523;SDS011;55524;51.380;13.372;2023-01-19T07:20:11;8.60;;;4.32;;
68523;SDS011;55524;51.380;13.372;2023-01-19T07:22:38;9.15;;;4.70;;
68523;SDS011;55524;51.380;13.372;2023-01-19T07:25:10;9.70;;;4.45;;
68523;SDS011;55524;51.380;13.372;2023-01-19T07:27:37;9.30;;;5.05;;
68523;SDS011;55524;51.380;13.372;2023-01-19T07:30:04;8.95;;;4.72;;
68523;SDS011;55524;51.380;13.372;2023-01-19T07:32:32;9.68;;;4.05;;
68523;SDS011;55524;51.380;13.372;2023-01-19T07:34:58;7.93;;;4.57;;
68523;SDS011;55524;51.380;13.372;2023-01-19T07:37:24;9.82;;;5.18;;
68523;SDS011;55524;51.380;13.372;2023-01-19T07:39:50;10.60;;;5.07;;
68523;SDS011;55524;51.380;13.372;2023-01-19T07:42:16;9.45;;;4.78;;
68523;SDS011;55524;51.380;13.372;2023-01-19T07:44:43;14.38;;;4.85;;
68523;SDS011;55524;51.380;13.372;2023-01-19T07:47:09;9.18;;;4.80;;
68523;SDS011;55524;51.380;13.372;2023-01-19T07:49:37;10.32;;;5.43;;
68523;SDS011;55524;51.380;13.372;2023-01-19T07:52:03;11.63;;;4.78;;
68523;SDS011;55524;51.380;13.372;2023-01-19T07:54:31;9.75;;;5.43;;
68523;SDS011;55524;51.380;13.372;2023-01-19T07:56:57;8.15;;;4.43;;
68523;SDS011;55524;51.380;13.372;2023-01-19T07:59:25;11.98;;;4.95;;
68523;SDS011;55524;51.380;13.372;2023-01-19T08:01:52;9.85;;;5.15;;
68523;SDS011;55524;51.380;13.372;2023-01-19T08:04:18;11.30;;;4.97;;
68523;SDS011;55524;51.380;13.372;2023-01-19T08:06:45;15.05;;;5.90;;
68523;SDS011;55524;51.380;13.372;2023-01-19T08:09:11;10.45;;;5.35;;
68523;SDS011;55524;51.380;13.372;2023-01-19T08:11:37;13.55;;;5.72;;
68523;SDS011;55524;51.380;13.372;2023-01-19T08:14:04;9.25;;;5.28;;
68523;SDS011;55524;51.380;13.372;2023-01-19T08:16:30;10.75;;;5.65;;
68523;SDS011;55524;51.380;13.372;2023-01-19T08:18:57;10.77;;;5.68;;
68523;SDS011;55524;51.380;13.372;2023-01-19T08:21:23;12.50;;;5.55;;
68523;SDS011;55524;51.380;13.372;2023-01-19T08:23:53;9.77;;;4.93;;
68523;SDS011;55524;51.380;13.372;2023-01-19T08:28:51;13.00;;;5.07;;
68523;SDS011;55524;51.380;13.372;2023-01-19T08:31:18;12.38;;;4.75;;
68523;SDS011;55524;51.380;13.372;2023-01-19T08:33:45;9.10;;;5.05;;
68523;SDS011;55524;51.380;13.372;2023-01-19T08:36:11;11.90;;;5.15;;
68523;SDS011;55524;51.380;13.372;2023-01-19T08:38:37;11.27;;;5.15;;
68523;SDS011;55524;51.380;13.372;2023-01-19T08:41:07;13.98;;;5.65;;
68523;SDS011;55524;51.380;13.372;2023-01-19T08:43:34;11.57;;;5.05;;
68523;SDS011;55524;51.380;13.372;2023-01-19T08:46:00;10.50;;;4.57;;
68523;SDS011;55524;51.380;13.372;2023-01-19T08:48:27;9.05;;;5.32;;
68523;SDS011;55524;51.380;13.372;2023-01-19T08:50:53;10.55;;;5.38;;
68523;SDS011;55524;51.380;13.372;2023-01-19T08:53:20;9.18;;;4.55;;
68523;SDS011;55524;51.380;13.372;2023-01-19T08:55:48;8.73;;;4.75;;
68523;SDS011;55524;51.380;13.372;2023-01-19T08:58:18;10.32;;;5.13;;
68523;SDS011;55524;51.380;13.372;2023-01-19T09:00:44;11.27;;;4.95;;
68523;SDS011;55524;51.380;13.372;2023-01-19T09:03:11;9.73;;;4.88;;
68523;SDS011;55524;51.380;13.372;2023-01-19T09:05:37;9.30;;;5.22;;
68523;SDS011;55524;51.380;13.372;2023-01-19T09:08:11;13.38;;;5.38;;
68523;SDS011;55524;51.380;13.372;2023-01-19T09:10:38;12.15;;;5.13;;
68523;SDS011;55524;51.380;13.372;2023-01-19T09:13:13;14.85;;;5.30;;
68523;SDS011;55524;51.380;13.372;2023-01-19T09:15:40;12.40;;;5.45;;
68523;SDS011;55524;51.380;13.372;2023-01-19T09:18:11;13.50;;;5.57;;
68523;SDS011;55524;51.380;13.372;2023-01-19T09:20:40;11.40;;;5.53;;
68523;SDS011;55524;51.380;13.372;2023-01-19T09:23:10;8.83;;;5.83;;
68523;SDS011;55524;51.380;13.372;2023-01-19T09:25:38;11.75;;;5.70;;
68523;SDS011;55524;51.380;13.372;2023-01-19T09:28:06;13.40;;;5.35;;
68523;SDS011;55524;51.380;13.372;2023-01-19T09:30:34;10.43;;;5.60;;
68523;SDS011;55524;51.380;13.372;2023-01-19T09:33:02;16.95;;;5.85;;
68523;SDS011;55524;51.380;13.372;2023-01-19T09:35:31;10.43;;;5.53;;
68523;SDS011;55524;51.380;13.372;2023-01-19T09:37:58;12.05;;;5.55;;
68523;SDS011;55524;51.380;13.372;2023-01-19T09:40:24;12.40;;;5.60;;
68523;SDS011;55524;51.380;13.372;2023-01-19T09:42:52;11.63;;;6.03;;
68523;SDS011;55524;51.380;13.372;2023-01-19T09:45:34;9.82;;;5.43;;
68523;SDS011;55524;51.380;13.372;2023-01-19T09:51:06;15.93;;;5.93;;
68523;SDS011;55524;51.380;13.372;2023-01-19T09:56:29;11.95;;;6.00;;
68523;SDS011;55524;51.380;13.372;2023-01-19T09:58:56;10.02;;;5.72;;
68523;SDS011;55524;51.380;13.372;2023-01-19T10:15:27;12.02;;;5.65;;
68523;SDS011;55524;51.380;13.372;2023-01-19T10:20:38;10.80;;;6.15;;
68523;SDS011;55524;51.380;13.372;2023-01-19T10:23:28;11.93;;;5.93;;
68523;SDS011;55524;51.380;13.372;2023-01-19T10:26:07;10.65;;;6.07;;
68523;SDS011;55524;51.380;13.372;2023-01-19T10:28:39;13.05;;;5.63;;
68523;SDS011;55524;51.380;13.372;2023-01-19T10:31:06;13.65;;;5.63;;
68523;SDS011;55524;51.380;13.372;2023-01-19T10:33:34;14.35;;;6.03;;
68523;SDS011;55524;51.380;13.372;2023-01-19T10:36:04;13.90;;;6.03;;
68523;SDS011;55524;51.380;13.372;2023-01-19T10:38:40;11.73;;;6.10;;
68523;SDS011;55524;51.380;13.372;2023-01-19T10:41:11;12.90;;;6.57;;
68523;SDS011;55524;51.380;13.372;2023-01-19T10:43:44;12.93;;;5.97;;
68523;SDS011;55524;51.380;13.372;2023-01-19T10:48:50;10.18;;;6.00;;
68523;SDS011;55524;51.380;13.372;2023-01-19T10:51:18;9.88;;;5.97;;
68523;SDS011;55524;51.380;13.372;2023-01-19T10:53:52;12.68;;;6.53;;
68523;SDS011;55524;51.380;13.372;2023-01-19T10:56:24;13.75;;;6.38;;
68523;SDS011;55524;51.380;13.372;2023-01-19T10:58:54;14.38;;;6.97;;
68523;SDS011;55524;51.380;13.372;2023-01-19T11:01:23;11.27;;;6.53;;
68523;SDS011;55524;51.380;13.372;2023-01-19T11:03:52;17.50;;;7.10;;
68523;SDS011;55524;51.380;13.372;2023-01-19T11:06:27;12.88;;;6.80;;
68523;SDS011;55524;51.380;13.372;2023-01-19T11:11:45;10.90;;;6.05;;
68523;SDS011;55524;51.380;13.372;2023-01-19T11:14:23;12.60;;;6.40;;
68523;SDS011;55524;51.380;13.372;2023-01-19T11:16:51;15.32;;;6.75;;
68523;SDS011;55524;51.380;13.372;2023-01-19T11:19:24;14.95;;;6.97;;
68523;SDS011;55524;51.380;13.372;2023-01-19T11:22:06;13.13;;;6.88;;
68523;SDS011;55524;51.380;13.372;2023-01-19T11:24:39;8.23;;;5.72;;
68523;SDS011;55524;51.380;13.372;2023-01-19T11:27:07;7.75;;;5.47;;
68523;SDS011;55524;51.380;13.372;2023-01-19T11:29:34;11.98;;;6.55;;
68523;SDS011;55524;51.380;13.372;2023-01-19T11:32:09;12.52;;;5.65;;
68523;SDS011;55524;51.380;13.372;2023-01-19T11:34:42;11.75;;;6.43;;
68523;SDS011;55524;51.380;13.372;2023-01-19T11:39:44;11.52;;;5.82;;
68523;SDS011;55524;51.380;13.372;2023-01-19T11:42:12;12.43;;;6.15;;
68523;SDS011;55524;51.380;13.372;2023-01-19T11:44:46;12.80;;;6.55;;
68523;SDS011;55524;51.380;13.372;2023-01-19T11:47:15;13.95;;;6.18;;
68523;SDS011;55524;51.380;13.372;2023-01-19T11:58:17;9.60;;;6.60;;
68523;SDS011;55524;51.380;13.372;2023-01-19T12:00:45;13.75;;;7.00;;
68523;SDS011;55524;51.380;13.372;2023-01-19T12:06:13;12.63;;;6.03;;
68523;SDS011;55524;51.380;13.372;2023-01-19T12:08:47;11.73;;;6.13;;
68523;SDS011;55524;51.380;13.372;2023-01-19T12:11:19;11.52;;;6.05;;
68523;SDS011;55524;51.380;13.372;2023-01-19T12:13:55;12.63;;;6.65;;
68523;SDS011;55524;51.380;13.372;2023-01-19T12:16:23;13.20;;;6.45;;
68523;SDS011;55524;51.380;13.372;2023-01-19T12:18:55;11.48;;;5.53;;
68523;SDS011;55524;51.380;13.372;2023-01-19T12:21:24;14.10;;;6.00;;
68523;SDS011;55524;51.380;13.372;2023-01-19T12:26:50;13.52;;;6.53;;
68523;SDS011;55524;51.380;13.372;2023-01-19T12:29:20;13.63;;;6.30;;
68523;SDS011;55524;51.380;13.372;2023-01-19T12:39:53;8.90;;;5.95;;
68523;SDS011;55524;51.380;13.372;2023-01-19T12:42:43;10.77;;;5.68;;
68523;SDS011;55524;51.380;13.372;2023-01-19T12:45:21;14.48;;;6.47;;
68523;SDS011;55524;51.380;13.372;2023-01-19T12:47:53;13.80;;;6.63;;
68523;SDS011;55524;51.380;13.372;2023-01-19T12:50:21;14.90;;;6.57;;
68523;SDS011;55524;51.380;13.372;2023-01-19T12:52:50;10.80;;;6.05;;
68523;SDS011;55524;51.380;13.372;2023-01-19T12:55:23;9.52;;;5.78;;
68523;SDS011;55524;51.380;13.372;2023-01-19T13:00:44;10.85;;;6.60;;
68523;SDS011;55524;51.380;13.372;2023-01-19T13:13:26;10.73;;;6.20;;
68523;SDS011;55524;51.380;13.372;2023-01-19T13:15:55;14.75;;;6.60;;
68523;SDS011;55524;51.380;13.372;2023-01-19T13:21:31;9.95;;;5.85;;
68523;SDS011;55524;51.380;13.372;2023-01-19T13:24:10;9.43;;;5.28;;
68523;SDS011;55524;51.380;13.372;2023-01-19T13:29:25;11.27;;;5.90;;
68523;SDS011;55524;51.380;13.372;2023-01-19T13:31:57;10.35;;;6.05;;
68523;SDS011;55524;51.380;13.372;2023-01-19T13:34:27;12.23;;;5.32;;
68523;SDS011;55524;51.380;13.372;2023-01-19T13:36:56;11.40;;;5.68;;
68523;SDS011;55524;51.380;13.372;2023-01-19T13:39:36;9.82;;;5.70;;
68523;SDS011;55524;51.380;13.372;2023-01-19T13:42:06;10.77;;;5.47;;
68523;SDS011;55524;51.380;13.372;2023-01-19T13:44:41;12.77;;;6.13;;
68523;SDS011;55524;51.380;13.372;2023-01-19T13:48:03;12.30;;;5.78;;
68523;SDS011;55524;51.380;13.372;2023-01-19T13:50:13;15.93;;;6.43;;
68523;SDS011;55524;51.380;13.372;2023-01-19T13:52:51;13.40;;;5.70;;
68523;SDS011;55524;51.380;13.372;2023-01-19T13:55:19;15.73;;;6.10;;
68523;SDS011;55524;51.380;13.372;2023-01-19T13:57:47;11.00;;;6.00;;
68523;SDS011;55524;51.380;13.372;2023-01-19T14:00:16;9.93;;;5.70;;
68523;SDS011;55524;51.380;13.372;2023-01-19T14:03:00;16.42;;;6.47;;
68523;SDS011;55524;51.380;13.372;2023-01-19T14:05:42;9.15;;;5.53;;
68523;SDS011;55524;51.380;13.372;2023-01-19T14:10:39;14.02;;;5.30;;
68523;SDS011;55524;51.380;13.372;2023-01-19T14:15:43;11.77;;;6.07;;
68523;SDS011;55524;51.380;13.372;2023-01-19T14:32:10;9.30;;;5.78;;
68523;SDS011;55524;51.380;13.372;2023-01-19T14:37:32;11.60;;;5.78;;
68523;SDS011;55524;51.380;13.372;2023-01-19T14:40:01;10.82;;;6.05;;
68523;SDS011;55524;51.380;13.372;2023-01-19T14:42:50;12.00;;;5.95;;
68523;SDS011;55524;51.380;13.372;2023-01-19T14:48:05;7.82;;;5.25;;
68523;SDS011;55524;51.380;13.372;2023-01-19T14:50:38;7.50;;;5.00;;
68523;SDS011;55524;51.380;13.372;2023-01-19T14:53:19;9.88;;;5.35;;
68523;SDS011;55524;51.380;13.372;2023-01-19T14:55:55;7.53;;;4.45;;
68523;SDS011;55524;51.380;13.372;2023-01-19T14:58:25;8.05;;;5.43;;
68523;SDS011;55524;51.380;13.372;2023-01-19T15:00:55;8.38;;;5.50;;
68523;SDS011;55524;51.380;13.372;2023-01-19T15:03:25;9.18;;;4.78;;
68523;SDS011;55524;51.380;13.372;2023-01-19T15:05:55;6.35;;;5.00;;
68523;SDS011;55524;51.380;13.372;2023-01-19T15:08:26;8.27;;;5.10;;
68523;SDS011;55524;51.380;13.372;2023-01-19T15:10:57;12.55;;;5.50;;
68523;SDS011;55524;51.380;13.372;2023-01-19T15:13:33;11.95;;;5.57;;
68523;SDS011;55524;51.380;13.372;2023-01-19T15:15:59;8.93;;;5.20;;
68523;SDS011;55524;51.380;13.372;2023-01-19T15:18:27;10.45;;;5.15;;
68523;SDS011;55524;51.380;13.372;2023-01-19T15:20:54;10.23;;;5.82;;
68523;SDS011;55524;51.380;13.372;2023-01-19T15:23:26;7.20;;;4.75;;
68523;SDS011;55524;51.380;13.372;2023-01-19T15:25:57;8.52;;;5.30;;
68523;SDS011;55524;51.380;13.372;2023-01-19T15:28:24;9.60;;;5.50;;
68523;SDS011;55524;51.380;13.372;2023-01-19T15:30:51;10.90;;;5.35;;
68523;SDS011;55524;51.380;13.372;2023-01-19T15:33:25;8.73;;;5.05;;
68523;SDS011;55524;51.380;13.372;2023-01-19T15:35:55;5.88;;;4.45;;
68523;SDS011;55524;51.380;13.372;2023-01-19T15:38:22;7.32;;;5.47;;
68523;SDS011;55524;51.380;13.372;2023-01-19T15:40:50;10.02;;;5.18;;
68523;SDS011;55524;51.380;13.372;2023-01-19T15:43:17;10.02;;;5.30;;
68523;SDS011;55524;51.380;13.372;2023-01-19T15:45:56;9.82;;;4.88;;
68523;SDS011;55524;51.380;13.372;2023-01-19T15:48:26;7.10;;;4.93;;
68523;SDS011;55524;51.380;13.372;2023-01-19T15:50:52;7.88;;;5.10;;
68523;SDS011;55524;51.380;13.372;2023-01-19T15:53:19;9.50;;;4.85;;
68523;SDS011;55524;51.380;13.372;2023-01-19T15:55:48;9.70;;;5.22;;
68523;SDS011;55524;51.380;13.372;2023-01-19T15:58:16;7.70;;;4.85;;
68523;SDS011;55524;51.380;13.372;2023-01-19T16:00:44;7.38;;;5.00;;
68523;SDS011;55524;51.380;13.372;2023-01-19T16:03:16;8.43;;;5.32;;
68523;SDS011;55524;51.380;13.372;2023-01-19T16:05:43;9.93;;;5.25;;
68523;SDS011;55524;51.380;13.372;2023-01-19T16:08:10;10.82;;;5.28;;
68523;SDS011;55524;51.380;13.372;2023-01-19T16:10:37;8.52;;;5.10;;
68523;SDS011;55524;51.380;13.372;2023-01-19T16:13:04;6.97;;;4.68;;
68523;SDS011;55524;51.380;13.372;2023-01-19T16:15:32;9.38;;;5.25;;
68523;SDS011;55524;51.380;13.372;2023-01-19T16:18:00;8.18;;;4.82;;
68523;SDS011;55524;51.380;13.372;2023-01-19T16:20:27;9.82;;;4.80;;
68523;SDS011;55524;51.380;13.372;2023-01-19T16:22:53;8.55;;;4.88;;
68523;SDS011;55524;51.380;13.372;2023-01-19T16:25:20;6.65;;;4.95;;
68523;SDS011;55524;51.380;13.372;2023-01-19T16:27:47;8.00;;;5.13;;
68523;SDS011;55524;51.380;13.372;2023-01-19T16:30:14;5.85;;;4.65;;
68523;SDS011;55524;51.380;13.372;2023-01-19T16:32:43;6.78;;;4.65;;
68523;SDS011;55524;51.380;13.372;2023-01-19T16:35:10;9.82;;;4.97;;
68523;SDS011;55524;51.380;13.372;2023-01-19T16:37:37;6.78;;;4.65;;
68523;SDS011;55524;51.380;13.372;2023-01-19T16:40:04;8.13;;;5.10;;
68523;SDS011;55524;51.380;13.372;2023-01-19T16:42:30;8.48;;;4.82;;
68523;SDS011;55524;51.380;13.372;2023-01-19T16:44:57;11.25;;;5.30;;
68523;SDS011;55524;51.380;13.372;2023-01-19T16:47:24;8.02;;;5.00;;